sensor_id;sensor_type;location;lat;lon;timestamp;P1;durP1;ratioP1;P2;durP2;ratioP2
78072;SDS011;67281;48.770;11.440;2023-04-25T00:00:14;3.47;;;2.77;;
78072;SDS011;67281;48.770;11.440;2023-04-25T00:02:41;3.70;;;2.97;;
78072;SDS011;67281;48.770;11.440;2023-04-25T00:05:08;3.27;;;2.90;;
78072;SDS011;67281;48.770;11.440;2023-04-25T00:07:35;2.87;;;2.67;;
78072;SDS011;67281;48.770;11.440;2023-04-25T00:10:02;2.90;;;2.60;;
78072;SDS011;67281;48.770;11.440;2023-04-25T00:12:30;6.87;;;2.60;;
78072;SDS011;67281;48.770;11.440;2023-04-25T00:14:56;3.27;;;2.60;;
78072;SDS011;67281;48.770;11.440;2023-04-25T00:17:23;5.20;;;2.93;;
78072;SDS011;67281;48.770;11.440;2023-04-25T00:19:53;5.20;;;2.70;;
78072;SDS011;67281;48.770;11.440;2023-04-25T00:22:20;3.13;;;2.83;;
78072;SDS011;67281;48.770;11.440;2023-04-25T00:24:47;2.87;;;2.67;;
78072;SDS011;67281;48.770;11.440;2023-04-25T00:27:14;3.47;;;2.97;;
78072;SDS011;67281;48.770;11.440;2023-04-25T00:29:41;4.20;;;3.00;;
78072;SDS011;67281;48.770;11.440;2023-04-25T00:32:07;5.60;;;4.93;;
78072;SDS011;67281;48.770;11.440;2023-04-25T00:34:34;3.90;;;2.83;;
78072;SDS011;67281;48.770;11.440;2023-04-25T00:37:01;2.93;;;2.70;;
78072;SDS011;67281;48.770;11.440;2023-04-25T00:39:28;3.10;;;2.80;;
78072;SDS011;67281;48.770;11.440;2023-04-25T00:41:55;5.57;;;3.33;;
78072;SDS011;67281;48.770;11.440;2023-04-25T00:44:22;3.63;;;3.33;;
78072;SDS011;67281;48.770;11.440;2023-04-25T00:46:50;3.70;;;3.40;;
78072;SDS011;67281;48.770;11.440;2023-04-25T00:49:17;3.63;;;3.33;;
78072;SDS011;67281;48.770;11.440;2023-04-25T00:51:43;4.67;;;3.03;;
78072;SDS011;67281;48.770;11.440;2023-04-25T00:54:13;3.30;;;3.00;;
78072;SDS011;67281;48.770;11.440;2023-04-25T00:56:40;4.27;;;3.53;;
78072;SDS011;67281;48.770;11.440;2023-04-25T00:59:09;3.33;;;3.03;;
78072;SDS011;67281;48.770;11.440;2023-04-25T01:01:36;5.33;;;3.47;;
78072;SDS011;67281;48.770;11.440;2023-04-25T01:04:04;3.93;;;3.63;;
78072;SDS011;67281;48.770;11.440;2023-04-25T01:06:31;5.00;;;3.40;;
78072;SDS011;67281;48.770;11.440;2023-04-25T01:08:58;6.87;;;3.43;;
78072;SDS011;67281;48.770;11.440;2023-04-25T01:11:26;3.87;;;3.47;;
78072;SDS011;67281;48.770;11.440;2023-04-25T01:13:53;3.60;;;3.30;;
78072;SDS011;67281;48.770;11.440;2023-04-25T01:16:20;3.67;;;3.13;;
78072;SDS011;67281;48.770;11.440;2023-04-25T01:18:46;4.50;;;3.33;;
78072;SDS011;67281;48.770;11.440;2023-04-25T01:21:14;4.43;;;3.50;;
78072;SDS011;67281;48.770;11.440;2023-04-25T01:23:41;6.10;;;3.17;;
78072;SDS011;67281;48.770;11.440;2023-04-25T01:26:09;5.13;;;3.50;;
78072;SDS011;67281;48.770;11.440;2023-04-25T01:28:38;4.03;;;3.17;;
78072;SDS011;67281;48.770;11.440;2023-04-25T01:31:08;5.33;;;3.70;;
78072;SDS011;67281;48.770;11.440;2023-04-25T01:33:35;4.53;;;3.33;;
78072;SDS011;67281;48.770;11.440;2023-04-25T01:36:03;6.30;;;3.37;;
78072;SDS011;67281;48.770;11.440;2023-04-25T01:38:33;3.40;;;3.10;;
78072;SDS011;67281;48.770;11.440;2023-04-25T01:41:00;3.93;;;2.93;;
78072;SDS011;67281;48.770;11.440;2023-04-25T01:43:27;3.37;;;3.07;;
78072;SDS011;67281;48.770;11.440;2023-04-25T01:45:54;4.20;;;3.83;;
78072;SDS011;67281;48.770;11.440;2023-04-25T01:48:21;4.20;;;3.60;;
78072;SDS011;67281;48.770;11.440;2023-04-25T01:50:48;4.80;;;3.00;;
78072;SDS011;67281;48.770;11.440;2023-04-25T01:53:15;3.13;;;2.87;;
78072;SDS011;67281;48.770;11.440;2023-04-25T01:55:42;3.17;;;2.97;;
78072;SDS011;67281;48.770;11.440;2023-04-25T01:58:09;3.13;;;2.80;;
78072;SDS011;67281;48.770;11.440;2023-04-25T02:00:36;3.70;;;3.30;;
78072;SDS011;67281;48.770;11.440;2023-04-25T02:03:07;3.40;;;2.90;;
78072;SDS011;67281;48.770;11.440;2023-04-25T02:05:35;3.27;;;2.93;;
78072;SDS011;67281;48.770;11.440;2023-04-25T02:08:06;4.30;;;3.07;;
78072;SDS011;67281;48.770;11.440;2023-04-25T02:10:35;3.20;;;2.90;;
78072;SDS011;67281;48.770;11.440;2023-04-25T02:13:02;3.57;;;3.27;;
78072;SDS011;67281;48.770;11.440;2023-04-25T02:15:31;3.20;;;2.90;;
78072;SDS011;67281;48.770;11.440;2023-04-25T02:17:58;3.47;;;3.00;;
78072;SDS011;67281;48.770;11.440;2023-04-25T02:20:27;3.00;;;2.80;;
78072;SDS011;67281;48.770;11.440;2023-04-25T02:22:55;3.23;;;2.73;;
78072;SDS011;67281;48.770;11.440;2023-04-25T02:25:22;3.23;;;2.70;;
78072;SDS011;67281;48.770;11.440;2023-04-25T02:27:49;4.00;;;3.10;;
78072;SDS011;67281;48.770;11.440;2023-04-25T02:30:17;3.70;;;2.90;;
78072;SDS011;67281;48.770;11.440;2023-04-25T02:32:44;3.63;;;3.23;;
78072;SDS011;67281;48.770;11.440;2023-04-25T02:35:11;3.30;;;3.00;;
78072;SDS011;67281;48.770;11.440;2023-04-25T02:37:38;4.47;;;2.60;;
78072;SDS011;67281;48.770;11.440;2023-04-25T02:40:06;4.20;;;2.80;;
78072;SDS011;67281;48.770;11.440;2023-04-25T02:42:33;4.00;;;2.80;;
78072;SDS011;67281;48.770;11.440;2023-04-25T02:45:01;2.70;;;2.50;;
78072;SDS011;67281;48.770;11.440;2023-04-25T02:47:28;3.13;;;2.50;;
78072;SDS011;67281;48.770;11.440;2023-04-25T02:49:56;3.03;;;2.77;;
78072;SDS011;67281;48.770;11.440;2023-04-25T02:52:23;3.50;;;2.60;;
78072;SDS011;67281;48.770;11.440;2023-04-25T02:54:49;2.50;;;2.30;;
78072;SDS011;67281;48.770;11.440;2023-04-25T02:57:16;3.67;;;2.60;;
78072;SDS011;67281;48.770;11.440;2023-04-25T02:59:43;3.07;;;2.87;;
78072;SDS011;67281;48.770;11.440;2023-04-25T03:02:10;3.90;;;3.03;;
78072;SDS011;67281;48.770;11.440;2023-04-25T03:04:37;2.70;;;2.40;;
78072;SDS011;67281;48.770;11.440;2023-04-25T03:07:04;3.17;;;2.60;;
78072;SDS011;67281;48.770;11.440;2023-04-25T03:09:31;3.70;;;2.50;;
78072;SDS011;67281;48.770;11.440;2023-04-25T03:11:58;3.00;;;2.70;;
78072;SDS011;67281;48.770;11.440;2023-04-25T03:14:25;4.57;;;2.60;;
78072;SDS011;67281;48.770;11.440;2023-04-25T03:16:52;3.73;;;2.87;;
78072;SDS011;67281;48.770;11.440;2023-04-25T03:19:18;2.93;;;2.53;;
78072;SDS011;67281;48.770;11.440;2023-04-25T03:21:46;5.63;;;3.37;;
78072;SDS011;67281;48.770;11.440;2023-04-25T03:24:13;4.20;;;3.30;;
78072;SDS011;67281;48.770;11.440;2023-04-25T03:26:40;3.80;;;2.83;;
78072;SDS011;67281;48.770;11.440;2023-04-25T03:29:07;3.37;;;2.90;;
78072;SDS011;67281;48.770;11.440;2023-04-25T03:31:34;4.37;;;3.23;;
78072;SDS011;67281;48.770;11.440;2023-04-25T03:34:00;4.23;;;2.67;;
78072;SDS011;67281;48.770;11.440;2023-04-25T03:36:27;3.83;;;2.83;;
78072;SDS011;67281;48.770;11.440;2023-04-25T03:38:54;3.27;;;2.97;;
78072;SDS011;67281;48.770;11.440;2023-04-25T03:41:21;6.03;;;3.30;;
78072;SDS011;67281;48.770;11.440;2023-04-25T03:43:48;4.00;;;2.73;;
78072;SDS011;67281;48.770;11.440;2023-04-25T03:46:15;3.50;;;3.20;;
78072;SDS011;67281;48.770;11.440;2023-04-25T03:48:41;3.50;;;2.93;;
78072;SDS011;67281;48.770;11.440;2023-04-25T03:51:08;4.00;;;3.30;;
78072;SDS011;67281;48.770;11.440;2023-04-25T03:53:35;3.13;;;2.83;;
78072;SDS011;67281;48.770;11.440;2023-04-25T03:56:02;3.13;;;2.87;;
78072;SDS011;67281;48.770;11.440;2023-04-25T03:58:29;4.33;;;3.13;;
78072;SDS011;67281;48.770;11.440;2023-04-25T04:00:56;3.40;;;2.80;;
78072;SDS011;67281;48.770;11.440;2023-04-25T04:03:22;5.10;;;2.60;;
78072;SDS011;67281;48.770;11.440;2023-04-25T04:05:49;5.60;;;3.40;;
78072;SDS011;67281;48.770;11.440;2023-04-25T04:08:16;4.47;;;2.60;;
78072;SDS011;67281;48.770;11.440;2023-04-25T04:10:43;3.50;;;3.20;;
78072;SDS011;67281;48.770;11.440;2023-04-25T04:13:10;2.97;;;2.67;;
78072;SDS011;67281;48.770;11.440;2023-04-25T04:15:37;4.83;;;3.10;;
78072;SDS011;67281;48.770;11.440;2023-04-25T04:18:04;3.77;;;2.90;;
78072;SDS011;67281;48.770;11.440;2023-04-25T04:20:30;3.03;;;2.73;;
78072;SDS011;67281;48.770;11.440;2023-04-25T04:22:57;3.43;;;3.13;;
78072;SDS011;67281;48.770;11.440;2023-04-25T04:25:24;3.33;;;2.73;;
78072;SDS011;67281;48.770;11.440;2023-04-25T04:27:51;3.17;;;2.80;;
78072;SDS011;67281;48.770;11.440;2023-04-25T04:30:22;4.30;;;3.00;;
78072;SDS011;67281;48.770;11.440;2023-04-25T04:32:51;4.40;;;3.07;;
78072;SDS011;67281;48.770;11.440;2023-04-25T04:35:18;4.63;;;3.20;;
78072;SDS011;67281;48.770;11.440;2023-04-25T04:37:45;4.00;;;3.07;;
78072;SDS011;67281;48.770;11.440;2023-04-25T04:40:12;4.03;;;3.23;;
78072;SDS011;67281;48.770;11.440;2023-04-25T04:42:42;4.43;;;2.80;;
78072;SDS011;67281;48.770;11.440;2023-04-25T04:45:09;3.73;;;3.17;;
78072;SDS011;67281;48.770;11.440;2023-04-25T04:47:37;4.33;;;3.00;;
78072;SDS011;67281;48.770;11.440;2023-04-25T04:50:06;4.97;;;3.20;;
78072;SDS011;67281;48.770;11.440;2023-04-25T04:52:36;5.03;;;3.20;;
78072;SDS011;67281;48.770;11.440;2023-04-25T04:55:04;3.20;;;2.90;;
78072;SDS011;67281;48.770;11.440;2023-04-25T04:57:32;2.93;;;2.73;;
78072;SDS011;67281;48.770;11.440;2023-04-25T04:59:59;4.70;;;3.20;;
78072;SDS011;67281;48.770;11.440;2023-04-25T05:02:27;6.00;;;3.33;;
78072;SDS011;67281;48.770;11.440;2023-04-25T05:04:55;3.37;;;3.03;;
78072;SDS011;67281;48.770;11.440;2023-04-25T05:07:23;5.10;;;3.20;;
78072;SDS011;67281;48.770;11.440;2023-04-25T05:09:50;3.83;;;3.33;;
78072;SDS011;67281;48.770;11.440;2023-04-25T05:12:17;4.70;;;3.20;;
78072;SDS011;67281;48.770;11.440;2023-04-25T05:14:44;4.27;;;2.90;;
78072;SDS011;67281;48.770;11.440;2023-04-25T05:17:10;3.77;;;3.47;;
78072;SDS011;67281;48.770;11.440;2023-04-25T05:19:37;4.43;;;3.37;;
78072;SDS011;67281;48.770;11.440;2023-04-25T05:22:05;5.27;;;3.13;;
78072;SDS011;67281;48.770;11.440;2023-04-25T05:24:32;4.40;;;3.37;;
78072;SDS011;67281;48.770;11.440;2023-04-25T05:26:59;3.13;;;2.83;;
78072;SDS011;67281;48.770;11.440;2023-04-25T05:29:26;5.47;;;3.00;;
78072;SDS011;67281;48.770;11.440;2023-04-25T05:31:53;5.27;;;3.40;;
78072;SDS011;67281;48.770;11.440;2023-04-25T05:34:20;3.47;;;2.97;;
78072;SDS011;67281;48.770;11.440;2023-04-25T05:36:47;3.93;;;3.10;;
78072;SDS011;67281;48.770;11.440;2023-04-25T05:39:15;5.37;;;3.03;;
78072;SDS011;67281;48.770;11.440;2023-04-25T05:41:43;3.90;;;3.17;;
78072;SDS011;67281;48.770;11.440;2023-04-25T05:44:10;3.27;;;2.70;;
78072;SDS011;67281;48.770;11.440;2023-04-25T05:46:37;3.93;;;2.90;;
78072;SDS011;67281;48.770;11.440;2023-04-25T05:49:04;3.90;;;2.90;;
78072;SDS011;67281;48.770;11.440;2023-04-25T05:51:31;5.00;;;2.70;;
78072;SDS011;67281;48.770;11.440;2023-04-25T05:53:58;3.37;;;3.07;;
78072;SDS011;67281;48.770;11.440;2023-04-25T05:56:25;3.40;;;2.93;;
78072;SDS011;67281;48.770;11.440;2023-04-25T05:58:52;6.23;;;3.57;;
78072;SDS011;67281;48.770;11.440;2023-04-25T06:01:19;3.30;;;3.00;;
78072;SDS011;67281;48.770;11.440;2023-04-25T06:03:46;5.97;;;3.10;;
78072;SDS011;67281;48.770;11.440;2023-04-25T06:06:14;4.63;;;3.00;;
78072;SDS011;67281;48.770;11.440;2023-04-25T06:08:41;3.50;;;2.90;;
78072;SDS011;67281;48.770;11.440;2023-04-25T06:11:07;3.23;;;2.93;;
78072;SDS011;67281;48.770;11.440;2023-04-25T06:13:34;3.30;;;2.97;;
78072;SDS011;67281;48.770;11.440;2023-04-25T06:16:01;4.53;;;3.30;;
78072;SDS011;67281;48.770;11.440;2023-04-25T06:18:28;4.57;;;3.53;;
78072;SDS011;67281;48.770;11.440;2023-04-25T06:20:55;5.97;;;3.00;;
78072;SDS011;67281;48.770;11.440;2023-04-25T06:23:21;3.67;;;2.97;;
78072;SDS011;67281;48.770;11.440;2023-04-25T06:25:48;5.53;;;3.30;;
78072;SDS011;67281;48.770;11.440;2023-04-25T06:28:15;3.27;;;2.70;;
78072;SDS011;67281;48.770;11.440;2023-04-25T06:30:42;3.20;;;2.80;;
78072;SDS011;67281;48.770;11.440;2023-04-25T06:33:08;5.57;;;3.20;;
78072;SDS011;67281;48.770;11.440;2023-04-25T06:35:35;5.07;;;3.47;;
78072;SDS011;67281;48.770;11.440;2023-04-25T06:38:02;6.87;;;2.93;;
78072;SDS011;67281;48.770;11.440;2023-04-25T06:40:30;5.80;;;3.80;;
78072;SDS011;67281;48.770;11.440;2023-04-25T06:42:57;4.13;;;3.27;;
78072;SDS011;67281;48.770;11.440;2023-04-25T06:45:24;4.40;;;2.80;;
78072;SDS011;67281;48.770;11.440;2023-04-25T06:47:51;4.60;;;3.30;;
78072;SDS011;67281;48.770;11.440;2023-04-25T06:50:17;5.53;;;3.13;;
78072;SDS011;67281;48.770;11.440;2023-04-25T06:52:44;3.83;;;3.10;;
78072;SDS011;67281;48.770;11.440;2023-04-25T06:55:11;4.77;;;3.13;;
78072;SDS011;67281;48.770;11.440;2023-04-25T06:57:38;4.23;;;3.23;;
78072;SDS011;67281;48.770;11.440;2023-04-25T07:00:05;5.83;;;3.13;;
78072;SDS011;67281;48.770;11.440;2023-04-25T07:02:35;3.30;;;3.00;;
78072;SDS011;67281;48.770;11.440;2023-04-25T07:05:02;3.83;;;3.40;;
78072;SDS011;67281;48.770;11.440;2023-04-25T07:07:30;5.03;;;3.00;;
78072;SDS011;67281;48.770;11.440;2023-04-25T07:09:57;4.67;;;3.10;;
78072;SDS011;67281;48.770;11.440;2023-04-25T07:12:24;4.77;;;3.10;;
78072;SDS011;67281;48.770;11.440;2023-04-25T07:14:50;4.83;;;3.30;;
78072;SDS011;67281;48.770;11.440;2023-04-25T07:17:17;3.50;;;3.20;;
78072;SDS011;67281;48.770;11.440;2023-04-25T07:19:44;4.23;;;3.10;;
78072;SDS011;67281;48.770;11.440;2023-04-25T07:22:11;3.80;;;3.50;;
78072;SDS011;67281;48.770;11.440;2023-04-25T07:24:38;4.33;;;3.50;;
78072;SDS011;67281;48.770;11.440;2023-04-25T07:27:05;5.40;;;3.73;;
78072;SDS011;67281;48.770;11.440;2023-04-25T07:29:32;4.83;;;3.50;;
78072;SDS011;67281;48.770;11.440;2023-04-25T07:32:02;2.60;;;2.20;;
78072;SDS011;67281;48.770;11.440;2023-04-25T07:34:29;3.37;;;2.73;;
78072;SDS011;67281;48.770;11.440;2023-04-25T07:36:56;3.83;;;3.20;;
78072;SDS011;67281;48.770;11.440;2023-04-25T07:39:23;4.53;;;3.20;;
78072;SDS011;67281;48.770;11.440;2023-04-25T07:41:50;3.57;;;2.70;;
78072;SDS011;67281;48.770;11.440;2023-04-25T07:44:20;3.77;;;3.00;;
78072;SDS011;67281;48.770;11.440;2023-04-25T07:46:47;5.10;;;2.93;;
78072;SDS011;67281;48.770;11.440;2023-04-25T07:49:14;3.83;;;3.20;;
78072;SDS011;67281;48.770;11.440;2023-04-25T07:51:41;4.03;;;3.10;;
78072;SDS011;67281;48.770;11.440;2023-04-25T07:54:12;7.17;;;3.37;;
78072;SDS011;67281;48.770;11.440;2023-04-25T07:56:40;6.67;;;3.67;;
78072;SDS011;67281;48.770;11.440;2023-04-25T07:59:18;3.07;;;2.83;;
78072;SDS011;67281;48.770;11.440;2023-04-25T08:01:45;5.70;;;3.13;;
78072;SDS011;67281;48.770;11.440;2023-04-25T08:04:11;4.83;;;3.00;;
78072;SDS011;67281;48.770;11.440;2023-04-25T08:06:39;3.67;;;2.80;;
78072;SDS011;67281;48.770;11.440;2023-04-25T08:09:07;4.07;;;3.07;;
78072;SDS011;67281;48.770;11.440;2023-04-25T08:11:35;6.37;;;3.37;;
78072;SDS011;67281;48.770;11.440;2023-04-25T08:14:02;5.87;;;3.57;;
78072;SDS011;67281;48.770;11.440;2023-04-25T08:16:29;6.53;;;3.73;;
78072;SDS011;67281;48.770;11.440;2023-04-25T08:18:56;3.80;;;3.27;;
78072;SDS011;67281;48.770;11.440;2023-04-25T08:21:23;4.00;;;3.30;;
78072;SDS011;67281;48.770;11.440;2023-04-25T08:23:50;6.20;;;3.20;;
78072;SDS011;67281;48.770;11.440;2023-04-25T08:26:17;5.33;;;3.30;;
78072;SDS011;67281;48.770;11.440;2023-04-25T08:28:44;4.70;;;3.20;;
78072;SDS011;67281;48.770;11.440;2023-04-25T08:31:10;6.53;;;3.57;;
78072;SDS011;67281;48.770;11.440;2023-04-25T08:33:37;4.13;;;3.07;;
78072;SDS011;67281;48.770;11.440;2023-04-25T08:36:04;3.93;;;3.13;;
78072;SDS011;67281;48.770;11.440;2023-04-25T08:38:32;5.50;;;3.70;;
78072;SDS011;67281;48.770;11.440;2023-04-25T08:40:59;4.37;;;3.33;;
78072;SDS011;67281;48.770;11.440;2023-04-25T08:43:27;4.60;;;3.07;;
78072;SDS011;67281;48.770;11.440;2023-04-25T08:46:00;3.40;;;2.70;;
78072;SDS011;67281;48.770;11.440;2023-04-25T08:48:27;4.87;;;3.30;;
78072;SDS011;67281;48.770;11.440;2023-04-25T08:50:59;3.80;;;3.40;;
78072;SDS011;67281;48.770;11.440;2023-04-25T08:53:29;3.63;;;2.67;;
78072;SDS011;67281;48.770;11.440;2023-04-25T08:56:00;2.53;;;2.33;;
78072;SDS011;67281;48.770;11.440;2023-04-25T08:58:30;4.47;;;3.07;;
78072;SDS011;67281;48.770;11.440;2023-04-25T09:00:58;3.13;;;2.83;;
78072;SDS011;67281;48.770;11.440;2023-04-25T09:03:26;4.13;;;2.97;;
78072;SDS011;67281;48.770;11.440;2023-04-25T09:05:55;4.40;;;2.70;;
78072;SDS011;67281;48.770;11.440;2023-04-25T09:08:23;4.57;;;2.43;;
78072;SDS011;67281;48.770;11.440;2023-04-25T09:10:49;3.77;;;2.63;;
78072;SDS011;67281;48.770;11.440;2023-04-25T09:13:23;4.30;;;2.70;;
78072;SDS011;67281;48.770;11.440;2023-04-25T09:15:55;6.07;;;2.73;;
78072;SDS011;67281;48.770;11.440;2023-04-25T09:18:26;2.77;;;2.57;;
78072;SDS011;67281;48.770;11.440;2023-04-25T09:20:56;2.90;;;2.50;;
78072;SDS011;67281;48.770;11.440;2023-04-25T09:23:48;0.90;;;0.90;;
78072;SDS011;67281;48.770;11.440;2023-04-25T09:26:17;1.47;;;1.37;;
78072;SDS011;67281;48.770;11.440;2023-04-25T09:28:45;0.90;;;0.90;;
78072;SDS011;67281;48.770;11.440;2023-04-25T09:31:23;1.00;;;0.90;;
78072;SDS011;67281;48.770;11.440;2023-04-25T09:33:58;1.27;;;1.10;;
78072;SDS011;67281;48.770;11.440;2023-04-25T09:36:53;1.00;;;1.00;;
78072;SDS011;67281;48.770;11.440;2023-04-25T09:39:20;1.27;;;1.17;;
78072;SDS011;67281;48.770;11.440;2023-04-25T09:41:52;1.30;;;1.07;;
78072;SDS011;67281;48.770;11.440;2023-04-25T09:44:23;1.07;;;0.83;;
78072;SDS011;67281;48.770;11.440;2023-04-25T09:46:50;1.17;;;0.97;;
78072;SDS011;67281;48.770;11.440;2023-04-25T09:49:20;0.97;;;0.90;;
78072;SDS011;67281;48.770;11.440;2023-04-25T09:51:54;1.47;;;1.10;;
78072;SDS011;67281;48.770;11.440;2023-04-25T09:54:25;2.60;;;1.20;;
78072;SDS011;67281;48.770;11.440;2023-04-25T09:56:53;1.07;;;1.00;;
78072;SDS011;67281;48.770;11.440;2023-04-25T09:59:20;1.10;;;1.00;;
78072;SDS011;67281;48.770;11.440;2023-04-25T10:01:49;1.37;;;1.17;;
78072;SDS011;67281;48.770;11.440;2023-04-25T10:04:19;1.20;;;0.97;;
78072;SDS011;67281;48.770;11.440;2023-04-25T10:06:49;1.10;;;0.90;;
78072;SDS011;67281;48.770;11.440;2023-04-25T10:09:16;0.90;;;0.90;;
78072;SDS011;67281;48.770;11.440;2023-04-25T10:11:47;1.50;;;1.40;;
78072;SDS011;67281;48.770;11.440;2023-04-25T10:14:18;2.73;;;1.40;;
78072;SDS011;67281;48.770;11.440;2023-04-25T10:16:45;1.30;;;1.20;;
78072;SDS011;67281;48.770;11.440;2023-04-25T10:19:13;1.10;;;1.10;;
78072;SDS011;67281;48.770;11.440;2023-04-25T10:21:52;2.33;;;2.13;;
78072;SDS011;67281;48.770;11.440;2023-04-25T10:24:22;3.87;;;2.10;;
78072;SDS011;67281;48.770;11.440;2023-04-25T10:26:49;1.67;;;1.57;;
78072;SDS011;67281;48.770;11.440;2023-04-25T10:29:24;1.93;;;1.70;;
78072;SDS011;67281;48.770;11.440;2023-04-25T10:31:51;1.93;;;1.80;;
78072;SDS011;67281;48.770;11.440;2023-04-25T10:34:19;2.07;;;1.83;;
78072;SDS011;67281;48.770;11.440;2023-04-25T10:36:52;2.13;;;1.47;;
78072;SDS011;67281;48.770;11.440;2023-04-25T10:39:23;1.63;;;1.53;;
78072;SDS011;67281;48.770;11.440;2023-04-25T10:41:57;2.00;;;1.60;;
78072;SDS011;67281;48.770;11.440;2023-04-25T10:44:28;2.03;;;1.80;;
78072;SDS011;67281;48.770;11.440;2023-04-25T10:46:56;1.80;;;1.63;;
78072;SDS011;67281;48.770;11.440;2023-04-25T10:49:31;3.03;;;1.80;;
78072;SDS011;67281;48.770;11.440;2023-04-25T10:54:54;1.97;;;1.83;;
78072;SDS011;67281;48.770;11.440;2023-04-25T10:57:32;2.30;;;1.97;;
78072;SDS011;67281;48.770;11.440;2023-04-25T11:02:48;2.17;;;1.83;;
78072;SDS011;67281;48.770;11.440;2023-04-25T11:08:16;2.47;;;2.20;;
78072;SDS011;67281;48.770;11.440;2023-04-25T11:11:00;3.73;;;1.97;;
78072;SDS011;67281;48.770;11.440;2023-04-25T11:13:29;2.50;;;2.30;;
78072;SDS011;67281;48.770;11.440;2023-04-25T11:15:57;3.07;;;2.13;;
78072;SDS011;67281;48.770;11.440;2023-04-25T11:18:40;2.63;;;2.07;;
78072;SDS011;67281;48.770;11.440;2023-04-25T11:21:08;3.50;;;2.00;;
78072;SDS011;67281;48.770;11.440;2023-04-25T11:23:35;2.27;;;2.07;;
78072;SDS011;67281;48.770;11.440;2023-04-25T11:26:05;2.30;;;2.10;;
78072;SDS011;67281;48.770;11.440;2023-04-25T11:28:33;2.10;;;1.77;;
78072;SDS011;67281;48.770;11.440;2023-04-25T11:31:00;6.47;;;2.03;;
78072;SDS011;67281;48.770;11.440;2023-04-25T11:33:26;2.13;;;1.77;;
78072;SDS011;67281;48.770;11.440;2023-04-25T11:35:54;2.77;;;2.10;;
78072;SDS011;67281;48.770;11.440;2023-04-25T11:38:22;1.83;;;1.73;;
78072;SDS011;67281;48.770;11.440;2023-04-25T11:40:53;5.30;;;2.40;;
78072;SDS011;67281;48.770;11.440;2023-04-25T11:43:23;2.30;;;1.80;;
78072;SDS011;67281;48.770;11.440;2023-04-25T11:45:50;1.40;;;1.30;;
78072;SDS011;67281;48.770;11.440;2023-04-25T11:48:17;2.73;;;2.20;;
78072;SDS011;67281;48.770;11.440;2023-04-25T11:50:51;4.60;;;2.10;;
78072;SDS011;67281;48.770;11.440;2023-04-25T11:53:18;2.83;;;1.70;;
78072;SDS011;67281;48.770;11.440;2023-04-25T11:55:45;2.70;;;1.70;;
78072;SDS011;67281;48.770;11.440;2023-04-25T11:58:12;2.20;;;1.90;;
78072;SDS011;67281;48.770;11.440;2023-04-25T12:00:41;3.17;;;2.00;;
78072;SDS011;67281;48.770;11.440;2023-04-25T12:03:16;4.17;;;2.13;;
78072;SDS011;67281;48.770;11.440;2023-04-25T12:05:45;3.23;;;2.00;;
78072;SDS011;67281;48.770;11.440;2023-04-25T12:08:13;3.67;;;2.13;;
78072;SDS011;67281;48.770;11.440;2023-04-25T12:10:44;4.23;;;2.10;;
78072;SDS011;67281;48.770;11.440;2023-04-25T12:13:22;4.37;;;2.20;;
78072;SDS011;67281;48.770;11.440;2023-04-25T12:15:55;2.00;;;1.90;;
78072;SDS011;67281;48.770;11.440;2023-04-25T12:18:23;2.73;;;2.20;;
78072;SDS011;67281;48.770;11.440;2023-04-25T12:20:54;2.63;;;2.43;;
78072;SDS011;67281;48.770;11.440;2023-04-25T12:23:28;4.17;;;2.67;;
78072;SDS011;67281;48.770;11.440;2023-04-25T12:25:55;2.57;;;1.87;;
78072;SDS011;67281;48.770;11.440;2023-04-25T12:28:24;2.40;;;2.20;;
78072;SDS011;67281;48.770;11.440;2023-04-25T12:33:22;4.43;;;2.20;;
78072;SDS011;67281;48.770;11.440;2023-04-25T12:35:49;3.17;;;2.50;;
78072;SDS011;67281;48.770;11.440;2023-04-25T12:38:25;3.80;;;1.97;;
78072;SDS011;67281;48.770;11.440;2023-04-25T12:40:53;2.80;;;2.20;;
78072;SDS011;67281;48.770;11.440;2023-04-25T12:43:20;2.43;;;2.20;;
78072;SDS011;67281;48.770;11.440;2023-04-25T12:45:48;3.80;;;2.47;;
78072;SDS011;67281;48.770;11.440;2023-04-25T12:48:20;2.40;;;2.00;;
78072;SDS011;67281;48.770;11.440;2023-04-25T12:50:48;2.20;;;2.00;;
78072;SDS011;67281;48.770;11.440;2023-04-25T12:53:16;3.47;;;2.30;;
78072;SDS011;67281;48.770;11.440;2023-04-25T12:55:44;2.77;;;2.40;;
78072;SDS011;67281;48.770;11.440;2023-04-25T12:58:15;3.57;;;2.07;;
78072;SDS011;67281;48.770;11.440;2023-04-25T13:00:42;3.70;;;2.70;;
78072;SDS011;67281;48.770;11.440;2023-04-25T13:03:10;3.07;;;2.23;;
78072;SDS011;67281;48.770;11.440;2023-04-25T13:05:38;2.43;;;2.13;;
78072;SDS011;67281;48.770;11.440;2023-04-25T13:08:05;3.83;;;2.40;;
78072;SDS011;67281;48.770;11.440;2023-04-25T13:10:32;2.20;;;1.90;;
78072;SDS011;67281;48.770;11.440;2023-04-25T13:13:00;3.97;;;2.40;;
78072;SDS011;67281;48.770;11.440;2023-04-25T13:15:27;3.80;;;2.30;;
78072;SDS011;67281;48.770;11.440;2023-04-25T13:17:54;2.53;;;2.07;;
78072;SDS011;67281;48.770;11.440;2023-04-25T13:20:22;2.60;;;2.20;;
78072;SDS011;67281;48.770;11.440;2023-04-25T13:22:49;4.50;;;2.53;;
78072;SDS011;67281;48.770;11.440;2023-04-25T13:25:16;3.73;;;2.23;;
78072;SDS011;67281;48.770;11.440;2023-04-25T13:27:43;3.13;;;2.30;;
78072;SDS011;67281;48.770;11.440;2023-04-25T13:30:11;2.70;;;2.50;;
78072;SDS011;67281;48.770;11.440;2023-04-25T13:32:38;2.70;;;2.37;;
78072;SDS011;67281;48.770;11.440;2023-04-25T13:35:06;4.77;;;3.03;;
78072;SDS011;67281;48.770;11.440;2023-04-25T13:37:36;7.20;;;2.50;;
78072;SDS011;67281;48.770;11.440;2023-04-25T13:40:08;3.30;;;2.37;;
78072;SDS011;67281;48.770;11.440;2023-04-25T13:42:37;3.20;;;2.27;;
78072;SDS011;67281;48.770;11.440;2023-04-25T13:45:04;1.93;;;1.53;;
78072;SDS011;67281;48.770;11.440;2023-04-25T13:47:32;1.43;;;1.33;;
78072;SDS011;67281;48.770;11.440;2023-04-25T13:50:00;4.90;;;2.20;;
78072;SDS011;67281;48.770;11.440;2023-04-25T13:52:29;2.33;;;2.00;;
78072;SDS011;67281;48.770;11.440;2023-04-25T13:54:56;3.97;;;2.30;;
78072;SDS011;67281;48.770;11.440;2023-04-25T13:57:23;2.80;;;2.10;;
78072;SDS011;67281;48.770;11.440;2023-04-25T13:59:50;4.33;;;2.50;;
78072;SDS011;67281;48.770;11.440;2023-04-25T14:02:18;3.30;;;2.40;;
78072;SDS011;67281;48.770;11.440;2023-04-25T14:04:45;3.30;;;2.40;;
78072;SDS011;67281;48.770;11.440;2023-04-25T14:07:13;2.30;;;2.07;;
78072;SDS011;67281;48.770;11.440;2023-04-25T14:09:42;2.73;;;2.30;;
78072;SDS011;67281;48.770;11.440;2023-04-25T14:12:09;3.53;;;2.13;;
78072;SDS011;67281;48.770;11.440;2023-04-25T14:14:36;2.80;;;2.20;;
78072;SDS011;67281;48.770;11.440;2023-04-25T14:17:04;3.37;;;2.30;;
78072;SDS011;67281;48.770;11.440;2023-04-25T14:19:31;3.13;;;2.40;;
78072;SDS011;67281;48.770;11.440;2023-04-25T14:21:58;4.60;;;2.53;;
78072;SDS011;67281;48.770;11.440;2023-04-25T14:24:25;3.13;;;2.20;;
78072;SDS011;67281;48.770;11.440;2023-04-25T14:26:53;4.70;;;2.40;;
78072;SDS011;67281;48.770;11.440;2023-04-25T14:29:20;2.50;;;2.00;;
78072;SDS011;67281;48.770;11.440;2023-04-25T14:31:47;4.63;;;2.50;;
78072;SDS011;67281;48.770;11.440;2023-04-25T14:34:14;4.17;;;2.07;;
78072;SDS011;67281;48.770;11.440;2023-04-25T14:36:41;2.43;;;2.00;;
78072;SDS011;67281;48.770;11.440;2023-04-25T14:39:08;1.93;;;1.33;;
78072;SDS011;67281;48.770;11.440;2023-04-25T14:41:36;2.83;;;1.80;;
78072;SDS011;67281;48.770;11.440;2023-04-25T14:44:04;7.13;;;1.83;;
78072;SDS011;67281;48.770;11.440;2023-04-25T14:46:31;2.83;;;1.90;;
78072;SDS011;67281;48.770;11.440;2023-04-25T14:48:58;2.60;;;2.00;;